Pomona, California
Current Conditions -  °F | °C
As of 12:53 PM on Friday 19 Dec 2014 (Local Time) from KONT Reporting Station
Broken Clouds Broken Clouds  
Wind Chill: 18°   Ceiling: 25000
Heat Index: 18°   Visibility: 10mi
Dew Point:   Wind: 6mph
Humidity: 45%   Direction: 300°WNW
Pressure: 30.18"   Gusts: NA
Location:  34.05°N, 117.75°W
Report Text: KONT 192053Z 30005KT 10SM FEW065 BKN250 18/06 A3018 RMK AO2 SLP218 T01780056 56019
Loading
Personal Weather Stations






























Interactive Weather Map New forecast layout! Learn more

10-Day Weather Forecast

Advertisements
Track Severe Weather on mobile